Time;durP1;ratioP1;P1;durP2;ratioP2;P2;SDS_P1;SDS_P2;PMS_P1;PMS_P2;Temp;Humidity;BMP_temperature;BMP_pressure;BME280_temperature;BME280_humidity;BME280_pressure;Samples;Min_cycle;Max_cycle;Signal;HPM_P1;HPM_P2
2023/06/02 00:01:34;;;;;;;;;;;;;;;;;;7370652;19;1460;-59
2023/06/02 00:04:02;;;;;;;;;;;;;;;;;;7368045;19;2054;-59
2023/06/02 00:06:32;;;;;;;;;;;;;;;;;;7369999;19;1887;-59
2023/06/02 00:09:03;;;;;;;;;;;;;;;;;;7366970;19;1290;-59
2023/06/02 00:11:34;;;;;;;;;;;;;;;;;;7368449;19;822;-60
2023/06/02 00:14:02;;;;;;;;;;;;;;;;;;7369185;19;1698;-58
2023/06/02 00:16:30;;;;;;;;;;;;;;;;;;7371925;19;1239;-56
2023/06/02 00:18:58;;;;;;;;;;;;;;;;;;7366183;19;1321;-61
2023/06/02 00:21:27;;;;;;;;;;;;;;;;;;7368950;19;2266;-61
2023/06/02 00:23:55;;;;;;;;;;;;;;;;;;7369373;19;2234;-58
2023/06/02 00:26:23;;;;;;;;;;;;;;;;;;7369022;19;1854;-59
2023/06/02 00:28:55;;;;;;;;;;;;;;;;;;7369503;19;1385;-59
2023/06/02 00:31:23;;;;;;;;;;;;;;;;;;7368167;19;1764;-57
2023/06/02 00:33:51;;;;;;;;;;;;;;;;;;7369862;19;1698;-57
2023/06/02 00:36:19;;;;;;;;;;;;;;;;;;7368451;19;1741;-59
2023/06/02 00:38:48;;;;;;;;;;;;;;;;;;7367896;19;1968;-59
2023/06/02 00:41:16;;;;;;;;;;;;;;;;;;7369794;19;1592;-59
2023/06/02 00:43:44;;;;;;;;;;;;;;;;;;7368560;19;1818;-60
2023/06/02 00:46:12;;;;;;;;;;;;;;;;;;7367509;19;1838;-60
2023/06/02 00:48:40;;;;;;;;;;;;;;;;;;7366029;19;844;-58
2023/06/02 00:51:08;;;;;;;;;;;;;;;;;;7364104;19;1242;-57
2023/06/02 00:53:37;;;;;;;;;;;;;;;;;;7367486;19;2254;-61
2023/06/02 00:56:05;;;;;;;;;;;;;;;;;;7367690;19;1797;-61
2023/06/02 00:58:37;;;;;;;;;;;;;;;;;;7369843;19;1572;-57
2023/06/02 01:01:05;;;;;;;;;;;;;;;;;;7363943;19;2043;-62
2023/06/02 01:03:33;;;;;;;;;;;;;;;;;;7369121;19;1680;-61
2023/06/02 01:06:02;;;;;;;;;;;;;;;;;;7363618;19;1845;-61
2023/06/02 01:08:30;;;;;;;;;;;;;;;;;;7367051;19;1738;-58
2023/06/02 01:10:59;;;;;;;;;;;;;;;;;;7364834;19;1541;-61
2023/06/02 01:13:27;;;;;;;;;;;;;;;;;;7363551;19;870;-60
2023/06/02 01:15:55;;;;;;;;;;;;;;;;;;7366064;19;2153;-61
2023/06/02 01:18:29;;;;;;;;;;;;;;;;;;7369927;19;1484;-61
2023/06/02 01:20:57;;;;;;;;;;;;;;;;;;7364021;19;1704;-60
2023/06/02 01:23:28;;;;;;;;;;;;;;;;;;7368632;19;1802;-56
2023/06/02 01:25:57;;;;;;;;;;;;;;;;;;7366747;19;2035;-58
2023/06/02 01:28:26;;;;;;;;;;;;;;;;;;7365295;19;1808;-60
2023/06/02 01:30:54;;;;;;;;;;;;;;;;;;7366434;19;1506;-61
2023/06/02 01:33:22;;;;;;;;;;;;;;;;;;7368818;19;1798;-60
2023/06/02 01:35:50;;;;;;;;;;;;;;;;;;7368561;19;1461;-60
2023/06/02 01:38:19;;;;;;;;;;;;;;;;;;7362962;19;2289;-60
2023/06/02 01:40:47;;;;;;;;;;;;;;;;;;7365889;19;1705;-60
2023/06/02 01:43:17;;;;;;;;;;;;;;;;;;7366028;19;2394;-59
2023/06/02 01:45:45;;;;;;;;;;;;;;;;;;7365894;19;1849;-60
2023/06/02 01:48:13;;;;;;;;;;;;;;;;;;7365728;19;2127;-59
2023/06/02 01:50:43;;;;;;;;;;;;;;;;;;7362675;19;1273;-59
2023/06/02 01:53:11;;;;;;;;;;;;;;;;;;7363305;19;1725;-64
2023/06/02 01:55:39;;;;;;;;;;;;;;;;;;7369364;19;1944;-62
2023/06/02 01:58:08;;;;;;;;;;;;;;;;;;7364747;19;1728;-61
2023/06/02 02:00:36;;;;;;;;;;;;;;;;;;7367086;19;1669;-62
2023/06/02 02:03:04;;;;;;;;;;;;;;;;;;7364664;19;1844;-61
2023/06/02 02:05:32;;;;;;;;;;;;;;;;;;7366797;19;2027;-62
2023/06/02 02:08:00;;;;;;;;;;;;;;;;;;7364203;19;893;-61
2023/06/02 02:10:29;;;;;;;;;;;;;;;;;;7362577;19;2054;-62
2023/06/02 02:12:57;;;;;;;;;;;;;;;;;;7367372;19;1856;-62
2023/06/02 02:15:27;;;;;;;;;;;;;;;;;;7365257;19;1919;-62
2023/06/02 02:17:57;;;;;;;;;;;;;;;;;;7365147;19;1720;-61
2023/06/02 02:20:25;;;;;;;;;;;;;;;;;;7365385;19;1538;-59
2023/06/02 02:22:53;;;;;;;;;;;;;;;;;;7362783;19;829;-62
2023/06/02 02:25:21;;;;;;;;;;;;;;;;;;7362751;19;1849;-62
2023/06/02 02:27:49;;;;;;;;;;;;;;;;;;7362867;19;2155;-62
2023/06/02 02:30:17;;;;;;;;;;;;;;;;;;7363929;19;2023;-62
2023/06/02 02:32:46;;;;;;;;;;;;;;;;;;7362390;19;822;-63
2023/06/02 02:35:14;;;;;;;;;;;;;;;;;;7362645;19;1890;-63
2023/06/02 02:37:44;;;;;;;;;;;;;;;;;;7364941;19;1798;-63
2023/06/02 02:40:12;;;;;;;;;;;;;;;;;;7361485;19;1985;-64
2023/06/02 02:42:40;;;;;;;;;;;;;;;;;;7364903;19;1860;-63
2023/06/02 02:45:08;;;;;;;;;;;;;;;;;;7364733;19;1701;-63
2023/06/02 02:47:36;;;;;;;;;;;;;;;;;;7366242;19;1828;-63
2023/06/02 02:50:05;;;;;;;;;;;;;;;;;;7360504;19;1284;-63
2023/06/02 02:52:35;;;;;;;;;;;;;;;;;;7363604;19;1746;-63
2023/06/02 02:55:03;;;;;;;;;;;;;;;;;;7365219;19;1772;-63
2023/06/02 02:57:32;;;;;;;;;;;;;;;;;;7360601;19;2001;-62
2023/06/02 03:00:00;;;;;;;;;;;;;;;;;;7363250;19;1722;-61
2023/06/02 03:02:30;;;;;;;;;;;;;;;;;;7364408;19;2307;-62
2023/06/02 03:05:02;;;;;;;;;;;;;;;;;;7364237;19;2069;-63
2023/06/02 03:07:30;;;;;;;;;;;;;;;;;;7363241;19;1846;-63
2023/06/02 03:09:58;;;;;;;;;;;;;;;;;;7363848;19;1470;-63
2023/06/02 03:12:26;;;;;;;;;;;;;;;;;;7363317;19;1927;-62
2023/06/02 03:14:55;;;;;;;;;;;;;;;;;;7364688;19;1769;-63
2023/06/02 03:17:23;;;;;;;;;;;;;;;;;;7362467;19;1731;-63
2023/06/02 03:19:52;;;;;;;;;;;;;;;;;;7368540;19;1732;-61
2023/06/02 03:22:20;;;;;;;;;;;;;;;;;;7367345;19;866;-60
2023/06/02 03:24:48;;;;;;;;;;;;;;;;;;7370988;19;2038;-61
2023/06/02 03:27:16;;;;;;;;;;;;;;;;;;7367163;19;1846;-61
2023/06/02 03:29:49;;;;;;;;;;;;;;;;;;7368896;19;1789;-61
2023/06/02 03:32:22;;;;;;;;;;;;;;;;;;7371267;19;1659;-62
2023/06/02 03:34:50;;;;;;;;;;;;;;;;;;7367245;19;826;-62
2023/06/02 03:37:19;;;;;;;;;;;;;;;;;;7367583;19;789;-61
2023/06/02 03:39:48;;;;;;;;;;;;;;;;;;7366198;19;1966;-61
2023/06/02 03:42:16;;;;;;;;;;;;;;;;;;7372143;19;1470;-62
2023/06/02 03:44:45;;;;;;;;;;;;;;;;;;7368289;19;2419;-60
2023/06/02 03:47:13;;;;;;;;;;;;;;;;;;7367555;19;1841;-61
2023/06/02 03:49:41;;;;;;;;;;;;;;;;;;7365251;19;1694;-62
2023/06/02 03:52:10;;;;;;;;;;;;;;;;;;7366028;19;1861;-62
2023/06/02 03:54:38;;;;;;;;;;;;;;;;;;7367445;19;2027;-62
2023/06/02 03:57:06;;;;;;;;;;;;;;;;;;7371717;19;1632;-62
2023/06/02 03:59:34;;;;;;;;;;;;;;;;;;7364482;19;1977;-63
2023/06/02 04:02:03;;;;;;;;;;;;;;;;;;7371015;19;2011;-61
2023/06/02 04:04:31;;;;;;;;;;;;;;;;;;7370395;19;1902;-62
2023/06/02 04:07:02;;;;;;;;;;;;;;;;;;7367952;19;1859;-61
2023/06/02 04:09:31;;;;;;;;;;;;;;;;;;7363917;19;1373;-60
2023/06/02 04:11:59;;;;;;;;;;;;;;;;;;7366685;19;1632;-61
2023/06/02 04:14:28;;;;;;;;;;;;;;;;;;7370835;19;1402;-61
2023/06/02 04:16:57;;;;;;;;;;;;;;;;;;7368099;19;2348;-59
2023/06/02 04:19:26;;;;;;;;;;;;;;;;;;7368636;19;1471;-61
2023/06/02 04:21:54;;;;;;;;;;;;;;;;;;7366990;19;1740;-62
2023/06/02 04:24:23;;;;;;;;;;;;;;;;;;7369010;19;1722;-61
2023/06/02 04:26:51;;;;;;;;;;;;;;;;;;7363956;19;1853;-62
2023/06/02 04:29:19;;;;;;;;;;;;;;;;;;7365118;19;1795;-62
2023/06/02 04:31:48;;;;;;;;;;;;;;;;;;7366758;19;2058;-61
2023/06/02 04:34:28;;;;;;;;;;;;;;;;;;7370860;19;1899;-61
2023/06/02 04:36:56;;;;;;;;;;;;;;;;;;7364323;19;1926;-62
2023/06/02 04:39:25;;;;;;;;;;;;;;;;;;7366358;19;1566;-63
2023/06/02 04:41:57;;;;;;;;;;;;;;;;;;7366361;19;2130;-62
2023/06/02 04:44:25;;;;;;;;;;;;;;;;;;7369344;19;1699;-62
2023/06/02 04:46:54;;;;;;;;;;;;;;;;;;7362547;19;2032;-62
2023/06/02 04:49:22;;;;;;;;;;;;;;;;;;7365220;19;1766;-61
2023/06/02 04:51:50;;;;;;;;;;;;;;;;;;7366122;19;1845;-58
2023/06/02 04:54:18;;;;;;;;;;;;;;;;;;7368629;19;1488;-62
2023/06/02 04:56:49;;;;;;;;;;;;;;;;;;7365113;19;790;-62
2023/06/02 04:59:19;;;;;;;;;;;;;;;;;;7365081;19;2228;-61
2023/06/02 05:01:47;;;;;;;;;;;;;;;;;;7367944;19;1676;-61
2023/06/02 05:04:15;;;;;;;;;;;;;;;;;;7366658;19;1802;-62
2023/06/02 05:06:43;;;;;;;;;;;;;;;;;;7365602;19;1849;-61
2023/06/02 05:09:12;;;;;;;;;;;;;;;;;;7366243;19;1925;-62
2023/06/02 05:11:40;;;;;;;;;;;;;;;;;;7369377;19;2160;-62
2023/06/02 05:14:08;;;;;;;;;;;;;;;;;;7365441;19;1859;-63
2023/06/02 05:16:36;;;;;;;;;;;;;;;;;;7365412;19;1987;-62
2023/06/02 05:19:05;;;;;;;;;;;;;;;;;;7363225;19;1903;-63
2023/06/02 05:21:33;;;;;;;;;;;;;;;;;;7364316;19;2194;-62
2023/06/02 05:24:04;;;;;;;;;;;;;;;;;;7366947;19;2144;-62
2023/06/02 05:26:32;;;;;;;;;;;;;;;;;;7366091;19;1955;-60
2023/06/02 05:29:00;;;;;;;;;;;;;;;;;;7365535;19;1828;-59
2023/06/02 05:31:29;;;;;;;;;;;;;;;;;;7366339;19;1761;-62
2023/06/02 05:33:59;;;;;;;;;;;;;;;;;;7363952;19;1905;-62
2023/06/02 05:36:27;;;;;;;;;;;;;;;;;;7368262;19;1912;-60
2023/06/02 05:38:55;;;;;;;;;;;;;;;;;;7366801;19;1917;-62
2023/06/02 05:41:24;;;;;;;;;;;;;;;;;;7362936;19;1949;-59
2023/06/02 05:43:52;;;;;;;;;;;;;;;;;;7365209;19;2277;-62
2023/06/02 05:46:20;;;;;;;;;;;;;;;;;;7366135;19;1988;-60
2023/06/02 05:48:49;;;;;;;;;;;;;;;;;;7364098;19;1730;-61
2023/06/02 05:51:19;;;;;;;;;;;;;;;;;;7365391;19;1630;-62
2023/06/02 05:53:49;;;;;;;;;;;;;;;;;;7364501;19;1797;-62
2023/06/02 05:56:18;;;;;;;;;;;;;;;;;;7364849;19;2012;-59
2023/06/02 05:58:46;;;;;;;;;;;;;;;;;;7364396;19;1664;-60
2023/06/02 06:01:15;;;;;;;;;;;;;;;;;;7362982;19;1329;-59
2023/06/02 06:03:43;;;;;;;;;;;;;;;;;;7362788;19;823;-59
2023/06/02 06:06:12;;;;;;;;;;;;;;;;;;7362112;19;1841;-61
2023/06/02 06:08:40;;;;;;;;;;;;;;;;;;7361668;19;854;-61
2023/06/02 06:11:08;;;;;;;;;;;;;;;;;;7360848;19;2243;-62
2023/06/02 06:13:36;;;;;;;;;;;;;;;;;;7366896;19;1660;-59
2023/06/02 06:16:05;;;;;;;;;;;;;;;;;;7362645;19;873;-61
2023/06/02 06:18:33;;;;;;;;;;;;;;;;;;7361650;19;844;-58
2023/06/02 06:21:01;;;;;;;;;;;;;;;;;;7357939;19;2022;-58
2023/06/02 06:23:29;;;;;;;;;;;;;;;;;;7365092;19;1889;-60
2023/06/02 06:25:58;;;;;;;;;;;;;;;;;;7362751;19;1753;-59
2023/06/02 06:28:26;;;;;;;;;;;;;;;;;;7363028;19;1861;-60
2023/06/02 06:30:54;;;;;;;;;;;;;;;;;;7362944;19;2160;-62
2023/06/02 06:33:23;;;;;;;;;;;;;;;;;;7367437;19;1681;-58
2023/06/02 06:35:51;;;;;;;;;;;;;;;;;;7361487;19;803;-61
2023/06/02 06:38:19;;;;;;;;;;;;;;;;;;7363311;19;1977;-61
2023/06/02 06:40:47;;;;;;;;;;;;;;;;;;7362147;19;1941;-62
2023/06/02 06:43:16;;;;;;;;;;;;;;;;;;7363635;19;1942;-59
2023/06/02 06:45:48;;;;;;;;;;;;;;;;;;7364727;19;1713;-59
2023/06/02 06:48:16;;;;;;;;;;;;;;;;;;7358529;19;1982;-60
2023/06/02 06:50:44;;;;;;;;;;;;;;;;;;7363140;19;1702;-61
2023/06/02 06:53:12;;;;;;;;;;;;;;;;;;7366936;19;1917;-60
2023/06/02 06:55:40;;;;;;;;;;;;;;;;;;7368594;19;1624;-59
2023/06/02 06:58:09;;;;;;;;;;;;;;;;;;7369997;19;1767;-61
2023/06/02 07:00:37;;;;;;;;;;;;;;;;;;7372298;19;1813;-59
2023/06/02 07:03:05;;;;;;;;;;;;;;;;;;7371384;19;1704;-61
2023/06/02 07:05:33;;;;;;;;;;;;;;;;;;7371704;19;2530;-61
2023/06/02 07:08:01;;;;;;;;;;;;;;;;;;7366494;19;2057;-62
2023/06/02 07:10:29;;;;;;;;;;;;;;;;;;7368344;19;2275;-61
2023/06/02 07:12:58;;;;;;;;;;;;;;;;;;7369580;19;1784;-60
2023/06/02 07:15:26;;;;;;;;;;;;;;;;;;7372206;19;2172;-62
2023/06/02 07:17:54;;;;;;;;;;;;;;;;;;7370436;19;1978;-61
2023/06/02 07:20:22;;;;;;;;;;;;;;;;;;7369855;19;1865;-61
2023/06/02 07:22:50;;;;;;;;;;;;;;;;;;7368319;19;2068;-61
2023/06/02 07:25:19;;;;;;;;;;;;;;;;;;7370246;19;1803;-60
2023/06/02 07:27:47;;;;;;;;;;;;;;;;;;7366538;19;1846;-61
2023/06/02 07:30:15;;;;;;;;;;;;;;;;;;7370062;19;2335;-61
2023/06/02 07:32:43;;;;;;;;;;;;;;;;;;7368999;19;1915;-62
2023/06/02 07:35:11;;;;;;;;;;;;;;;;;;7371010;19;1644;-62
2023/06/02 07:37:40;;;;;;;;;;;;;;;;;;7366956;19;2000;-61
2023/06/02 07:40:08;;;;;;;;;;;;;;;;;;7370246;19;1339;-62
2023/06/02 07:42:36;;;;;;;;;;;;;;;;;;7367453;19;846;-63
2023/06/02 07:45:04;;;;;;;;;;;;;;;;;;7367964;19;814;-62
2023/06/02 07:47:32;;;;;;;;;;;;;;;;;;7365984;19;1848;-60
2023/06/02 07:50:01;;;;;;;;;;;;;;;;;;7366684;19;1979;-62
2023/06/02 07:52:29;;;;;;;;;;;;;;;;;;7367647;19;1865;-60
2023/06/02 07:54:57;;;;;;;;;;;;;;;;;;7366617;19;1854;-62
2023/06/02 07:57:25;;;;;;;;;;;;;;;;;;7370587;19;1467;-61
2023/06/02 07:59:54;;;;;;;;;;;;;;;;;;7365436;19;1273;-60
2023/06/02 08:02:22;;;;;;;;;;;;;;;;;;7367640;19;864;-60
2023/06/02 08:04:50;;;;;;;;;;;;;;;;;;7365132;19;778;-61
2023/06/02 08:07:18;;;;;;;;;;;;;;;;;;7366702;19;1827;-60
2023/06/02 08:09:46;;;;;;;;;;;;;;;;;;7367384;19;2292;-62
2023/06/02 08:12:14;;;;;;;;;;;;;;;;;;7371636;19;1507;-61
2023/06/02 08:14:42;;;;;;;;;;;;;;;;;;7367644;19;821;-61
2023/06/02 08:17:10;;;;;;;;;;;;;;;;;;7367229;19;803;-61
2023/06/02 08:19:38;;;;;;;;;;;;;;;;;;7365869;19;1281;-57
2023/06/02 08:22:09;;;;;;;;;;;;;;;;;;7368270;19;818;-60
2023/06/02 08:24:38;;;;;;;;;;;;;;;;;;7367163;19;2065;-62
2023/06/02 08:27:07;;;;;;;;;;;;;;;;;;7370189;19;2123;-60
2023/06/02 08:29:35;;;;;;;;;;;;;;;;;;7370742;19;1726;-62
2023/06/02 08:32:03;;;;;;;;;;;;;;;;;;7367271;19;869;-62
2023/06/02 08:34:31;;;;;;;;;;;;;;;;;;7367773;19;836;-59
2023/06/02 08:37:00;;;;;;;;;;;;;;;;;;7367308;19;841;-60
2023/06/02 08:39:29;;;;;;;;;;;;;;;;;;7365927;19;1327;-59
2023/06/02 08:42:01;;;;;;;;;;;;;;;;;;7368114;19;2252;-61
2023/06/02 08:44:29;;;;;;;;;;;;;;;;;;7370823;19;1647;-62
2023/06/02 08:46:58;;;;;;;;;;;;;;;;;;7367369;19;1857;-61
2023/06/02 08:49:26;;;;;;;;;;;;;;;;;;7367201;19;1863;-63
2023/06/02 08:51:54;;;;;;;;;;;;;;;;;;7366635;19;2251;-63
2023/06/02 08:54:22;;;;;;;;;;;;;;;;;;7369185;19;1580;-62
2023/06/02 08:56:51;;;;;;;;;;;;;;;;;;7366061;19;820;-62
2023/06/02 08:59:20;;;;;;;;;;;;;;;;;;7365902;19;1282;-62
2023/06/02 09:01:48;;;;;;;;;;;;;;;;;;7367026;19;1736;-61
2023/06/02 09:04:16;;;;;;;;;;;;;;;;;;7368528;19;1823;-63
2023/06/02 09:06:48;;;;;;;;;;;;;;;;;;7365207;19;2029;-62
2023/06/02 09:09:17;;;;;;;;;;;;;;;;;;7363124;19;1960;-61
2023/06/02 09:11:45;;;;;;;;;;;;;;;;;;7368137;19;1723;-61
2023/06/02 09:14:13;;;;;;;;;;;;;;;;;;7365847;19;871;-62
2023/06/02 09:16:41;;;;;;;;;;;;;;;;;;7365347;19;1836;-61
2023/06/02 09:19:09;;;;;;;;;;;;;;;;;;7369253;19;1379;-63
2023/06/02 09:21:37;;;;;;;;;;;;;;;;;;7364439;19;1939;-63
2023/06/02 09:24:08;;;;;;;;;;;;;;;;;;7364863;19;1772;-63
2023/06/02 09:26:36;;;;;;;;;;;;;;;;;;7367250;19;1983;-63
2023/06/02 09:29:05;;;;;;;;;;;;;;;;;;7362700;19;2106;-62
2023/06/02 09:31:33;;;;;;;;;;;;;;;;;;7368472;19;1933;-63
2023/06/02 09:34:02;;;;;;;;;;;;;;;;;;7369587;19;1822;-61
2023/06/02 09:36:31;;;;;;;;;;;;;;;;;;7364377;19;1935;-62
2023/06/02 09:39:03;;;;;;;;;;;;;;;;;;7368517;19;1846;-62
2023/06/02 09:41:31;;;;;;;;;;;;;;;;;;7366892;19;2228;-62
2023/06/02 09:43:59;;;;;;;;;;;;;;;;;;7367339;19;1847;-63
2023/06/02 09:46:31;;;;;;;;;;;;;;;;;;7367803;19;1973;-62
2023/06/02 09:49:00;;;;;;;;;;;;;;;;;;7364680;19;1948;-62
2023/06/02 09:51:29;;;;;;;;;;;;;;;;;;7365618;19;1696;-62
2023/06/02 09:53:58;;;;;;;;;;;;;;;;;;7368816;19;1570;-62
2023/06/02 09:56:28;;;;;;;;;;;;;;;;;;7367864;19;1928;-62
2023/06/02 09:58:56;;;;;;;;;;;;;;;;;;7362935;19;1835;-62
2023/06/02 10:01:24;;;;;;;;;;;;;;;;;;7363247;19;1851;-62
2023/06/02 10:03:52;;;;;;;;;;;;;;;;;;7368234;19;1226;-63
2023/06/02 10:06:21;;;;;;;;;;;;;;;;;;7361151;19;1917;-62
2023/06/02 10:08:49;;;;;;;;;;;;;;;;;;7365305;19;2258;-62
2023/06/02 10:11:17;;;;;;;;;;;;;;;;;;7365241;19;1749;-63
2023/06/02 10:13:45;;;;;;;;;;;;;;;;;;7368145;19;1888;-62
2023/06/02 10:16:13;;;;;;;;;;;;;;;;;;7368282;19;1655;-63
2023/06/02 10:18:41;;;;;;;;;;;;;;;;;;7364554;19;2219;-62
2023/06/02 10:21:09;;;;;;;;;;;;;;;;;;7364177;19;1876;-63
2023/06/02 10:23:38;;;;;;;;;;;;;;;;;;7366917;19;1731;-62
2023/06/02 10:26:06;;;;;;;;;;;;;;;;;;7368251;19;1649;-64
2023/06/02 10:28:34;;;;;;;;;;;;;;;;;;7360414;19;1853;-63
2023/06/02 10:31:02;;;;;;;;;;;;;;;;;;7360830;19;2582;-63
2023/06/02 10:33:31;;;;;;;;;;;;;;;;;;7366518;19;1812;-63
2023/06/02 10:36:00;;;;;;;;;;;;;;;;;;7364869;19;2064;-63
2023/06/02 10:38:28;;;;;;;;;;;;;;;;;;7363661;19;1744;-63
2023/06/02 10:40:56;;;;;;;;;;;;;;;;;;7360707;19;1378;-63
2023/06/02 10:43:24;;;;;;;;;;;;;;;;;;7364082;19;820;-61
2023/06/02 10:45:54;;;;;;;;;;;;;;;;;;7365634;19;2229;-62
2023/06/02 10:48:22;;;;;;;;;;;;;;;;;;7366894;19;1861;-61
2023/06/02 10:50:50;;;;;;;;;;;;;;;;;;7360990;19;1269;-62
2023/06/02 10:53:19;;;;;;;;;;;;;;;;;;7363489;19;856;-62
2023/06/02 10:55:47;;;;;;;;;;;;;;;;;;7363417;19;834;-62
2023/06/02 10:58:15;;;;;;;;;;;;;;;;;;7362945;19;2047;-62
2023/06/02 11:00:43;;;;;;;;;;;;;;;;;;7360524;19;2073;-62
2023/06/02 11:03:11;;;;;;;;;;;;;;;;;;7366396;19;1760;-62
2023/06/02 11:05:39;;;;;;;;;;;;;;;;;;7364360;19;899;-61
2023/06/02 11:08:07;;;;;;;;;;;;;;;;;;7361355;19;1841;-62
2023/06/02 11:10:35;;;;;;;;;;;;;;;;;;7360318;19;2235;-61
2023/06/02 11:13:04;;;;;;;;;;;;;;;;;;7362968;19;2276;-64
2023/06/02 11:15:32;;;;;;;;;;;;;;;;;;7364677;19;1930;-64
2023/06/02 11:18:01;;;;;;;;;;;;;;;;;;7365307;19;1808;-63
2023/06/02 11:20:29;;;;;;;;;;;;;;;;;;7360708;19;2228;-63
2023/06/02 11:22:57;;;;;;;;;;;;;;;;;;7364634;19;2377;-64
2023/06/02 11:25:26;;;;;;;;;;;;;;;;;;7366338;19;1656;-59
2023/06/02 11:27:54;;;;;;;;;;;;;;;;;;7363283;19;2021;-61
2023/06/02 11:30:22;;;;;;;;;;;;;;;;;;7364058;19;1479;-62
2023/06/02 11:32:51;;;;;;;;;;;;;;;;;;7361819;19;782;-61
2023/06/02 11:35:19;;;;;;;;;;;;;;;;;;7361737;19;794;-63
2023/06/02 11:37:48;;;;;;;;;;;;;;;;;;7362521;19;772;-64
2023/06/02 11:40:16;;;;;;;;;;;;;;;;;;7367759;19;1334;-63
2023/06/02 11:42:44;;;;;;;;;;;;;;;;;;7367415;19;2241;-62
2023/06/02 11:45:12;;;;;;;;;;;;;;;;;;7372699;19;1872;-64
2023/06/02 11:47:41;;;;;;;;;;;;;;;;;;7367722;19;853;-64
2023/06/02 11:50:09;;;;;;;;;;;;;;;;;;7366208;19;1857;-64
2023/06/02 11:52:37;;;;;;;;;;;;;;;;;;7365968;19;1940;-64
2023/06/02 11:55:05;;;;;;;;;;;;;;;;;;7371764;19;1728;-64
2023/06/02 11:57:34;;;;;;;;;;;;;;;;;;7372714;19;1697;-64
2023/06/02 12:00:09;;;;;;;;;;;;;;;;;;7369165;19;2504;-63
2023/06/02 12:02:38;;;;;;;;;;;;;;;;;;7369461;19;1543;-63
2023/06/02 12:05:07;;;;;;;;;;;;;;;;;;7367411;19;2172;-62
2023/06/02 12:07:35;;;;;;;;;;;;;;;;;;7370367;19;2333;-62
2023/06/02 12:10:03;;;;;;;;;;;;;;;;;;7367981;19;2094;-61
2023/06/02 12:12:32;;;;;;;;;;;;;;;;;;7372238;19;1435;-62
2023/06/02 12:15:00;;;;;;;;;;;;;;;;;;7372268;19;855;-62
2023/06/02 12:17:28;;;;;;;;;;;;;;;;;;7368005;19;866;-61
2023/06/02 12:19:56;;;;;;;;;;;;;;;;;;7365742;19;1356;-62
2023/06/02 12:22:24;;;;;;;;;;;;;;;;;;7368522;19;2397;-63
2023/06/02 12:24:52;;;;;;;;;;;;;;;;;;7369569;19;1960;-63
2023/06/02 12:27:20;;;;;;;;;;;;;;;;;;7371238;19;1653;-61
2023/06/02 12:29:48;;;;;;;;;;;;;;;;;;7364194;19;1852;-62
2023/06/02 12:32:17;;;;;;;;;;;;;;;;;;7370800;19;1560;-61
2023/06/02 12:34:45;;;;;;;;;;;;;;;;;;7369954;19;1905;-62
2023/06/02 12:37:17;;;;;;;;;;;;;;;;;;7369440;19;1952;-62
2023/06/02 12:39:45;;;;;;;;;;;;;;;;;;7367939;19;1666;-62
2023/06/02 12:42:16;;;;;;;;;;;;;;;;;;7365332;19;2225;-62
2023/06/02 12:44:46;;;;;;;;;;;;;;;;;;7368851;19;1475;-62
2023/06/02 12:47:14;;;;;;;;;;;;;;;;;;7367734;19;903;-62
2023/06/02 12:49:44;;;;;;;;;;;;;;;;;;7362752;19;1877;-62
2023/06/02 12:52:12;;;;;;;;;;;;;;;;;;7366861;19;710;-62
2023/06/02 12:54:41;;;;;;;;;;;;;;;;;;7367989;19;949;-61
2023/06/02 12:57:09;;;;;;;;;;;;;;;;;;7368946;19;2220;-61
2023/06/02 12:59:37;;;;;;;;;;;;;;;;;;7368606;19;2027;-62
2023/06/02 13:02:06;;;;;;;;;;;;;;;;;;7367792;19;1477;-62
2023/06/02 13:04:34;;;;;;;;;;;;;;;;;;7367028;19;898;-62
2023/06/02 13:07:04;;;;;;;;;;;;;;;;;;7366565;19;855;-62
2023/06/02 13:09:32;;;;;;;;;;;;;;;;;;7364799;19;1851;-61
2023/06/02 13:12:01;;;;;;;;;;;;;;;;;;7366115;19;2251;-63
2023/06/02 13:14:29;;;;;;;;;;;;;;;;;;7369563;19;1936;-63
2023/06/02 13:16:57;;;;;;;;;;;;;;;;;;7368834;19;1645;-63
2023/06/02 13:19:25;;;;;;;;;;;;;;;;;;7368538;19;1613;-63
2023/06/02 13:21:53;;;;;;;;;;;;;;;;;;7366848;19;983;-63
2023/06/02 13:24:22;;;;;;;;;;;;;;;;;;7365894;19;818;-62
2023/06/02 13:26:50;;;;;;;;;;;;;;;;;;7365658;19;953;-62
2023/06/02 13:29:18;;;;;;;;;;;;;;;;;;7364842;19;2246;-63
2023/06/02 13:31:47;;;;;;;;;;;;;;;;;;7366762;19;1468;-62
2023/06/02 13:34:15;;;;;;;;;;;;;;;;;;7365294;19;807;-62
2023/06/02 13:36:44;;;;;;;;;;;;;;;;;;7365223;19;874;-62
2023/06/02 13:39:12;;;;;;;;;;;;;;;;;;7366812;19;1403;-61
2023/06/02 13:41:41;;;;;;;;;;;;;;;;;;7364321;19;795;-63
2023/06/02 13:44:11;;;;;;;;;;;;;;;;;;7365393;19;2396;-63
2023/06/02 13:46:40;;;;;;;;;;;;;;;;;;7369948;19;1533;-62
2023/06/02 13:49:08;;;;;;;;;;;;;;;;;;7362647;19;1859;-62
2023/06/02 13:51:36;;;;;;;;;;;;;;;;;;7364961;19;779;-62
2023/06/02 13:54:04;;;;;;;;;;;;;;;;;;7365373;19;801;-63
2023/06/02 13:56:32;;;;;;;;;;;;;;;;;;7367357;19;908;-64
2023/06/02 13:59:00;;;;;;;;;;;;;;;;;;7361875;19;1301;-65
2023/06/02 14:01:29;;;;;;;;;;;;;;;;;;7363972;19;2293;-63
2023/06/02 14:03:57;;;;;;;;;;;;;;;;;;7367662;19;1508;-63
2023/06/02 14:06:25;;;;;;;;;;;;;;;;;;7364780;19;763;-62
2023/06/02 14:08:53;;;;;;;;;;;;;;;;;;7362188;19;1861;-62
2023/06/02 14:11:22;;;;;;;;;;;;;;;;;;7360313;19;1408;-62
2023/06/02 14:13:50;;;;;;;;;;;;;;;;;;7367565;19;894;-63
2023/06/02 14:16:18;;;;;;;;;;;;;;;;;;7367386;19;1846;-62
2023/06/02 14:18:46;;;;;;;;;;;;;;;;;;7367050;19;1469;-62
2023/06/02 14:21:14;;;;;;;;;;;;;;;;;;7361641;19;2147;-62
2023/06/02 14:23:43;;;;;;;;;;;;;;;;;;7366236;19;1463;-63
2023/06/02 14:26:11;;;;;;;;;;;;;;;;;;7363156;19;793;-63
2023/06/02 14:28:39;;;;;;;;;;;;;;;;;;7362470;19;1829;-61
2023/06/02 14:31:07;;;;;;;;;;;;;;;;;;7363760;19;1377;-63
2023/06/02 14:33:35;;;;;;;;;;;;;;;;;;7366211;19;1984;-62
2023/06/02 14:36:03;;;;;;;;;;;;;;;;;;7360968;19;2262;-63
2023/06/02 14:38:31;;;;;;;;;;;;;;;;;;7366015;19;1659;-63
2023/06/02 14:41:00;;;;;;;;;;;;;;;;;;7360746;19;1248;-62
2023/06/02 14:43:28;;;;;;;;;;;;;;;;;;7364382;19;2290;-62
2023/06/02 14:45:56;;;;;;;;;;;;;;;;;;7366553;19;1454;-63
2023/06/02 14:48:26;;;;;;;;;;;;;;;;;;7361850;19;882;-63
2023/06/02 14:50:54;;;;;;;;;;;;;;;;;;7359472;19;2083;-63
2023/06/02 14:53:23;;;;;;;;;;;;;;;;;;7365305;19;1828;-63
2023/06/02 14:55:51;;;;;;;;;;;;;;;;;;7366385;19;1482;-63
2023/06/02 14:58:20;;;;;;;;;;;;;;;;;;7362208;19;797;-64
2023/06/02 15:00:48;;;;;;;;;;;;;;;;;;7362893;19;1703;-63
2023/06/02 15:03:16;;;;;;;;;;;;;;;;;;7365335;19;1616;-63
2023/06/02 15:05:44;;;;;;;;;;;;;;;;;;7364197;19;1598;-61
2023/06/02 15:08:13;;;;;;;;;;;;;;;;;;7362885;19;2234;-63
2023/06/02 15:10:41;;;;;;;;;;;;;;;;;;7359177;19;1848;-62
2023/06/02 15:13:09;;;;;;;;;;;;;;;;;;7363472;19;873;-60
2023/06/02 15:15:37;;;;;;;;;;;;;;;;;;7368461;19;783;-63
2023/06/02 15:18:05;;;;;;;;;;;;;;;;;;7367365;19;855;-62
2023/06/02 15:20:34;;;;;;;;;;;;;;;;;;7367791;19;1325;-61
2023/06/02 15:23:02;;;;;;;;;;;;;;;;;;7368871;19;1847;-62
2023/06/02 15:25:30;;;;;;;;;;;;;;;;;;7372287;19;2298;-63
2023/06/02 15:27:58;;;;;;;;;;;;;;;;;;7370261;19;1487;-64
2023/06/02 15:30:26;;;;;;;;;;;;;;;;;;7366891;19;1863;-61
2023/06/02 15:32:55;;;;;;;;;;;;;;;;;;7368546;19;826;-63
2023/06/02 15:35:23;;;;;;;;;;;;;;;;;;7373080;19;1567;-63
2023/06/02 15:37:51;;;;;;;;;;;;;;;;;;7368326;19;787;-63
2023/06/02 15:40:19;;;;;;;;;;;;;;;;;;7369783;19;2108;-62
2023/06/02 15:42:48;;;;;;;;;;;;;;;;;;7367262;19;849;-62
2023/06/02 15:45:16;;;;;;;;;;;;;;;;;;7368132;19;820;-63
2023/06/02 15:47:44;;;;;;;;;;;;;;;;;;7366737;19;784;-64
2023/06/02 15:50:12;;;;;;;;;;;;;;;;;;7365993;19;1838;-63
2023/06/02 15:52:41;;;;;;;;;;;;;;;;;;7367585;19;779;-64
2023/06/02 15:55:09;;;;;;;;;;;;;;;;;;7370694;19;2226;-63
2023/06/02 15:57:37;;;;;;;;;;;;;;;;;;7371909;19;833;-64
2023/06/02 16:00:06;;;;;;;;;;;;;;;;;;7366670;19;1242;-64
2023/06/02 16:02:36;;;;;;;;;;;;;;;;;;7368168;19;1679;-64
2023/06/02 16:05:05;;;;;;;;;;;;;;;;;;7371681;19;1600;-64
2023/06/02 16:07:33;;;;;;;;;;;;;;;;;;7367436;19;2279;-64
2023/06/02 16:10:01;;;;;;;;;;;;;;;;;;7369132;19;1850;-63
2023/06/02 16:12:29;;;;;;;;;;;;;;;;;;7369614;19;947;-63
2023/06/02 16:14:57;;;;;;;;;;;;;;;;;;7367228;19;831;-63
2023/06/02 16:17:25;;;;;;;;;;;;;;;;;;7365812;19;2101;-63
2023/06/02 16:19:54;;;;;;;;;;;;;;;;;;7365214;19;2307;-64
2023/06/02 16:22:22;;;;;;;;;;;;;;;;;;7368738;19;1943;-63
2023/06/02 16:24:50;;;;;;;;;;;;;;;;;;7367374;19;1830;-63
2023/06/02 16:27:18;;;;;;;;;;;;;;;;;;7368571;19;1924;-62
2023/06/02 16:29:46;;;;;;;;;;;;;;;;;;7361810;19;2185;-64
2023/06/02 16:32:14;;;;;;;;;;;;;;;;;;7365308;19;1808;-64
2023/06/02 16:34:43;;;;;;;;;;;;;;;;;;7370932;19;1432;-63
2023/06/02 16:37:11;;;;;;;;;;;;;;;;;;7370126;19;1467;-63
2023/06/02 16:39:39;;;;;;;;;;;;;;;;;;7364648;19;1304;-63
2023/06/02 16:42:07;;;;;;;;;;;;;;;;;;7365260;19;800;-63
2023/06/02 16:44:36;;;;;;;;;;;;;;;;;;7366963;19;2235;-63
2023/06/02 16:47:04;;;;;;;;;;;;;;;;;;7368861;19;1631;-64
2023/06/02 16:49:34;;;;;;;;;;;;;;;;;;7367611;19;1845;-64
2023/06/02 16:52:02;;;;;;;;;;;;;;;;;;7365376;19;882;-63
2023/06/02 16:54:30;;;;;;;;;;;;;;;;;;7366159;19;854;-63
2023/06/02 16:56:58;;;;;;;;;;;;;;;;;;7366279;19;2215;-63
2023/06/02 16:59:26;;;;;;;;;;;;;;;;;;7368435;19;1656;-64
2023/06/02 17:01:55;;;;;;;;;;;;;;;;;;7365567;19;825;-64
2023/06/02 17:04:23;;;;;;;;;;;;;;;;;;7366162;19;2148;-63
2023/06/02 17:06:51;;;;;;;;;;;;;;;;;;7367371;19;1463;-63
2023/06/02 17:09:20;;;;;;;;;;;;;;;;;;7363693;19;1287;-63
2023/06/02 17:11:48;;;;;;;;;;;;;;;;;;7362548;19;1846;-63
2023/06/02 17:14:17;;;;;;;;;;;;;;;;;;7369098;19;1403;-63